Time;durP1;ratioP1;P1;durP2;ratioP2;P2;SDS_P1;SDS_P2;PMS_P1;PMS_P2;Temp;Humidity;BMP_temperature;BMP_pressure;BME280_temperature;BME280_humidity;BME280_pressure;Samples;Min_cycle;Max_cycle;Signal;HPM_P1;HPM_P2
2023/07/31 00:00:52;;;;;;;4.28;1.83;;;;;;;18.20;89.69;99639.31;12213294;19;20016;-82
2023/07/31 00:04:54;;;;;;;8.63;2.00;;;;;;;18.14;91.16;99646.13;12215669;19;20006;-81
2023/07/31 00:08:56;;;;;;;5.43;1.70;;;;;;;18.12;91.09;99634.47;12194258;19;20027;-82
2023/07/31 00:12:58;;;;;;;6.18;1.60;;;;;;;18.09;90.88;99640.66;12219015;19;20088;-82
2023/07/31 00:16:59;;;;;;;7.32;1.90;;;;;;;18.07;93.67;99640.94;12215450;19;20069;-82
2023/07/31 00:21:01;;;;;;;5.93;2.10;;;;;;;18.05;93.93;99626.47;12190261;19;20017;-81
2023/07/31 00:25:06;;;;;;;6.53;2.03;;;;;;;18.00;94.38;99634.94;12210440;19;20007;-81
2023/07/31 00:29:08;;;;;;;4.05;1.80;;;;;;;18.02;94.14;99627.06;12214817;19;20018;-80
2023/07/31 00:33:11;;;;;;;3.88;1.50;;;;;;;18.02;93.22;99632.66;12191380;19;20082;-81
2023/07/31 00:37:13;;;;;;;5.47;1.88;;;;;;;18.06;91.47;99622.56;12213994;19;20010;-81
2023/07/31 00:41:15;;;;;;;7.15;1.63;;;;;;;18.14;90.65;99634.97;12190373;19;20038;-82
2023/07/31 00:45:17;;;;;;;7.30;2.13;;;;;;;18.17;88.84;99624.06;12213793;19;20473;-81
2023/07/31 00:49:20;;;;;;;7.53;1.63;;;;;;;18.24;88.24;99620.06;12214872;19;20552;-82
2023/07/31 00:53:24;;;;;;;5.20;1.85;;;;;;;18.30;87.51;99602.09;12187938;19;21124;-82
2023/07/31 00:57:26;;;;;;;6.35;2.05;;;;;;;18.34;86.65;99608.69;12213407;19;20473;-83
2023/07/31 01:01:28;;;;;;;8.50;2.28;;;;;;;18.33;85.73;99610.66;12211310;19;20082;-82
2023/07/31 01:05:48;;;;;;;7.20;2.20;;;;;;;18.39;85.05;99589.09;12189969;19;20453;-82
2023/07/31 01:10:02;;;;;;;6.22;2.00;;;;;;;18.42;84.07;99610.78;12210539;19;20029;-82
2023/07/31 01:14:04;;;;;;;5.13;1.80;;;;;;;18.47;83.88;99605.09;12209335;19;20007;-81
2023/07/31 01:18:06;;;;;;;3.95;1.98;;;;;;;18.49;82.54;99600.03;12188605;19;20066;-81
2023/07/31 01:22:30;;;;;;;7.33;1.97;;;;;;;18.55;82.21;99606.38;12207678;19;20015;-81
2023/07/31 01:26:38;;;;;;;5.75;1.88;;;;;;;18.54;81.12;99608.31;12190560;19;20016;-81
2023/07/31 01:30:47;;;;;;;6.85;1.90;;;;;;;18.55;80.75;99606.38;12209489;19;20015;-81
2023/07/31 01:34:51;;;;;;;4.35;1.70;;;;;;;18.56;80.75;99594.91;12212314;19;20599;-81
2023/07/31 01:38:57;;;;;;;3.65;1.67;;;;;;;18.61;81.23;99596.75;12193033;19;20003;-81
2023/07/31 01:42:59;;;;;;;5.70;1.90;;;;;;;18.61;81.41;99594.78;12242337;19;20009;-79
2023/07/31 01:47:03;;;;;;;4.70;1.88;;;;;;;18.60;81.35;99597.91;12249413;19;20019;-81
2023/07/31 01:51:05;;;;;;;6.13;2.10;;;;;;;18.59;81.49;99588.72;12228006;19;20050;-80
2023/07/31 01:55:07;;;;;;;5.93;2.03;;;;;;;18.54;81.24;99580.44;12246267;19;20040;-81
2023/07/31 01:59:08;;;;;;;7.13;1.83;;;;;;;18.52;81.94;99562.34;12210448;19;20007;-81
2023/07/31 02:03:10;;;;;;;6.00;2.13;;;;;;;18.47;82.39;99556.84;12183040;19;20010;-80
2023/07/31 02:07:12;;;;;;;4.60;1.70;;;;;;;18.45;82.43;99562.75;12200832;19;20009;-80
2023/07/31 02:11:14;;;;;;;5.28;2.10;;;;;;;18.41;82.46;99556.97;12184612;19;20780;-81
2023/07/31 02:15:16;;;;;;;5.57;2.15;;;;;;;18.39;83.38;99559.22;12207022;19;20027;-80
2023/07/31 02:19:18;;;;;;;6.70;2.08;;;;;;;18.39;83.05;99559.22;12207768;19;20011;-80
2023/07/31 02:23:20;;;;;;;7.70;2.75;;;;;;;18.33;83.19;99545.69;12183337;19;20007;-80
2023/07/31 02:27:24;;;;;;;5.50;2.10;;;;;;;18.33;83.67;99542.91;12208551;19;20014;-80
2023/07/31 02:31:26;;;;;;;8.68;2.72;;;;;;;18.26;84.13;99536.88;12208900;19;20006;-79
2023/07/31 02:35:28;;;;;;;7.13;2.22;;;;;;;18.21;85.03;99532.25;12188180;19;20007;-80
2023/07/31 02:39:32;;;;;;;6.97;2.42;;;;;;;18.16;85.75;99530.34;12206550;19;20015;-81
2023/07/31 02:43:35;;;;;;;7.60;2.20;;;;;;;18.15;85.89;99534.28;12203852;19;22228;-80
2023/07/31 02:47:36;;;;;;;5.13;2.40;;;;;;;18.10;87.02;99539.94;12184536;19;20007;-81
2023/07/31 02:51:38;;;;;;;6.75;2.80;;;;;;;18.03;87.63;99539.53;12206552;19;20010;-80
2023/07/31 02:55:40;;;;;;;7.63;2.00;;;;;;;17.97;88.57;99540.75;12204626;19;20912;-80
2023/07/31 02:59:42;;;;;;;4.85;1.98;;;;;;;17.92;89.10;99538.06;12180891;19;20010;-80
2023/07/31 03:03:44;;;;;;;4.95;1.70;;;;;;;17.86;90.55;99539.28;12205858;19;20010;-80
2023/07/31 03:07:46;;;;;;;9.65;2.28;;;;;;;17.80;90.99;99540.50;12206009;19;20011;-80
2023/07/31 03:11:47;;;;;;;10.05;2.40;;;;;;;17.73;91.75;99540.84;12182055;19;20685;-80
2023/07/31 03:15:50;;;;;;;6.70;2.15;;;;;;;17.73;91.71;99547.25;12204043;19;20002;-78
2023/07/31 03:19:52;;;;;;;;;;;;;;;17.73;91.58;99552.84;12204574;19;20022;-80
2023/07/31 03:23:54;;;;;;;8.10;2.33;;;;;;;17.73;91.08;99557.59;12179620;19;19911;-79
2023/07/31 03:27:56;;;;;;;6.93;2.27;;;;;;;17.75;90.54;99547.75;12204435;19;20092;-79
2023/07/31 03:31:57;;;;;;;6.97;2.40;;;;;;;17.72;91.81;99548.38;12204474;19;20007;-79
2023/07/31 03:36:02;;;;;;;6.72;2.42;;;;;;;17.64;95.37;99548.22;12190993;19;20028;-79
2023/07/31 03:40:05;;;;;;;7.68;2.90;;;;;;;17.50;98.47;99546.22;12216104;19;20047;-80
2023/07/31 03:44:07;;;;;;;9.68;2.97;;;;;;;17.41;100.00;99538.84;12214651;19;20019;-80
2023/07/31 03:48:09;;;;;;;7.18;2.60;;;;;;;17.29;100.00;99537.34;12192844;19;20071;-79
2023/07/31 03:52:11;;;;;;;8.90;3.45;;;;;;;17.18;100.00;99540.56;12212674;19;20013;-80
2023/07/31 03:56:13;;;;;;;9.17;3.03;;;;;;;17.07;100.00;99542.66;12203219;19;20399;-80
2023/07/31 04:00:15;;;;;;;5.93;2.43;;;;;;;16.98;100.00;99536.13;12214835;19;20511;-80
2023/07/31 04:04:16;;;;;;;8.82;3.17;;;;;;;16.94;100.00;99540.63;12215165;19;20015;-80
2023/07/31 04:08:18;;;;;;;4.53;2.22;;;;;;;16.89;100.00;99540.69;12193743;19;20011;-81
2023/07/31 04:12:20;;;;;;;8.40;2.70;;;;;;;16.90;100.00;99545.97;12211040;19;20038;-81
2023/07/31 04:16:22;;;;;;;6.32;2.05;;;;;;;16.91;100.00;99544.00;12215993;19;20418;-79
2023/07/31 04:20:23;;;;;;;7.50;2.50;;;;;;;16.96;100.00;99541.16;12190798;19;20007;-79
2023/07/31 04:24:25;;;;;;;8.25;2.70;;;;;;;16.99;100.00;99533.03;12211765;19;20018;-79
2023/07/31 04:28:27;;;;;;;6.22;2.58;;;;;;;17.04;100.00;99533.00;12214110;19;20007;-79
2023/07/31 04:32:29;;;;;;;8.27;2.50;;;;;;;17.09;100.00;99530.09;12193246;19;20371;-80
2023/07/31 04:36:31;;;;;;;7.93;2.53;;;;;;;17.17;100.00;99534.19;12213386;19;20011;-81
2023/07/31 04:40:33;;;;;;;5.10;2.35;;;;;;;17.21;100.00;99532.44;12223766;19;20007;-79
2023/07/31 04:44:35;;;;;;;7.33;2.40;;;;;;;17.25;100.00;99525.16;12220090;19;20006;-79
2023/07/31 04:48:37;;;;;;;7.63;2.30;;;;;;;17.28;100.00;99527.34;12237487;19;20011;-79
2023/07/31 04:52:39;;;;;;;8.32;2.15;;;;;;;17.38;100.00;99528.31;12238830;19;20011;-80
2023/07/31 04:56:41;;;;;;;5.32;2.40;;;;;;;17.41;99.57;99524.94;12217687;19;20139;-82
2023/07/31 05:00:42;;;;;;;6.57;3.75;;;;;;;17.48;99.93;99522.56;12228998;19;20003;-80
2023/07/31 05:04:45;;;;;;;6.88;2.22;;;;;;;17.51;99.07;99514.44;12219039;19;20296;-82
2023/07/31 05:08:47;;;;;;;11.38;2.30;;;;;;;17.55;97.82;99523.03;12194857;19;20031;-83
2023/07/31 05:12:48;;;;;;;4.00;2.40;;;;;;;17.63;97.13;99507.56;12211380;19;20449;-81
2023/07/31 05:16:50;;;;;;;6.57;2.22;;;;;;;17.71;95.53;99509.69;12209611;19;20010;-82
2023/07/31 05:20:52;;;;;;;6.35;1.80;;;;;;;17.83;95.14;99500.88;12192268;19;20022;-80
2023/07/31 05:24:54;;;;;;;7.22;2.20;;;;;;;17.90;93.53;99518.00;12212330;19;20015;-81
2023/07/31 05:28:55;;;;;;;5.13;2.10;;;;;;;17.95;93.28;99512.34;12209200;19;20027;-81
2023/07/31 05:32:57;;;;;;;9.55;2.45;;;;;;;18.03;92.36;99500.50;12178624;19;20047;-83
2023/07/31 05:36:59;;;;;;;6.57;2.92;;;;;;;18.10;91.41;99506.50;12205747;19;20468;-82
2023/07/31 05:41:01;;;;;;;6.15;2.60;;;;;;;18.22;92.15;99506.81;12212932;19;20027;-86
2023/07/31 05:45:04;;;;;;;8.02;3.38;;;;;;;18.24;90.60;99506.53;12190610;19;20458;-84
2023/07/31 05:49:07;;;;;;;10.90;2.35;;;;;;;18.35;90.29;99501.56;12189468;19;20027;-81
2023/07/31 05:53:10;;;;;;;6.13;2.45;;;;;;;18.41;89.69;99505.91;12212367;19;20022;-82
2023/07/31 05:57:12;;;;;;;8.88;2.60;;;;;;;18.45;88.99;99501.38;12191626;19;20021;-81
2023/07/31 06:01:15;;;;;;;10.23;2.87;;;;;;;18.48;90.02;99506.34;12215958;19;20043;-81
2023/07/31 06:05:17;;;;;;;8.57;2.30;;;;;;;18.48;89.11;99495.16;12194631;19;20007;-81
2023/07/31 06:09:20;;;;;;;7.53;2.42;;;;;;;18.47;88.92;99507.44;12216954;19;20511;-81
2023/07/31 06:13:21;;;;;;;6.72;2.65;;;;;;;18.54;88.79;99493.94;12214084;19;20338;-81
2023/07/31 06:17:23;;;;;;;6.30;2.40;;;;;;;18.68;88.77;99485.56;12190396;19;20033;-81
2023/07/31 06:21:25;;;;;;;5.20;2.03;;;;;;;18.87;87.09;99500.22;12211478;19;20011;-82
2023/07/31 06:25:27;;;;;;;10.73;3.08;;;;;;;19.03;86.27;99492.31;12208111;19;20022;-80
2023/07/31 06:29:30;;;;;;;6.60;2.43;;;;;;;19.15;85.13;99480.63;12187004;19;20006;-80
2023/07/31 06:33:32;;;;;;;8.43;2.92;;;;;;;19.31;84.99;99487.50;12216015;19;20085;-82
2023/07/31 06:37:34;;;;;;;5.35;2.45;;;;;;;19.57;84.40;99481.28;12221208;19;20023;-81
2023/07/31 06:41:38;;;;;;;9.55;2.50;;;;;;;19.68;81.99;99490.28;12204119;19;20041;-81
2023/07/31 06:45:45;;;;;;;9.35;2.40;;;;;;;19.70;81.89;99490.78;12215445;19;20033;-83
2023/07/31 06:49:47;;;;;;;12.35;2.83;;;;;;;19.55;81.78;99483.59;12207780;19;20027;-83
2023/07/31 06:53:49;;;;;;;5.38;2.70;;;;;;;19.40;82.78;99493.16;12193617;19;20031;-81
2023/07/31 06:57:52;;;;;;;6.15;2.88;;;;;;;19.37;83.46;99491.00;12211133;19;20019;-82
2023/07/31 07:01:54;;;;;;;6.75;2.28;;;;;;;19.33;82.96;99496.41;12208332;19;20010;-82
2023/07/31 07:05:59;;;;;;;6.82;2.10;;;;;;;19.30;83.72;99493.41;12181616;19;20003;-82
2023/07/31 07:10:01;;;;;;;7.67;2.43;;;;;;;19.47;84.30;99487.94;12207458;19;20024;-82
2023/07/31 07:14:03;;;;;;;6.35;2.70;;;;;;;20.01;82.48;99491.63;12211320;19;20014;-83
2023/07/31 07:18:05;;;;;;;5.15;2.42;;;;;;;20.53;79.02;99484.66;12196032;19;20066;-81
2023/07/31 07:22:07;;;;;;;6.47;2.83;;;;;;;20.97;75.55;99475.22;12213783;19;20860;-82
2023/07/31 07:26:09;;;;;;;8.00;2.70;;;;;;;20.97;73.72;99468.78;12218836;19;20014;-82
2023/07/31 07:30:12;;;;;;;5.30;2.65;;;;;;;20.90;74.02;99470.09;12195244;19;20494;-82
2023/07/31 07:34:13;;;;;;;18.57;3.53;;;;;;;20.94;74.25;99468.31;12219168;19;20027;-81
2023/07/31 07:38:15;;;;;;;10.20;2.47;;;;;;;20.84;74.16;99462.19;12192314;19;20014;-81
2023/07/31 07:42:18;;;;;;;8.30;2.63;;;;;;;21.03;74.79;99467.47;12212103;19;20027;-81
2023/07/31 07:46:19;;;;;;;7.80;2.50;;;;;;;21.08;74.06;99456.09;12212235;19;20013;-82
2023/07/31 07:50:21;;;;;;;8.73;2.20;;;;;;;21.04;74.49;99464.34;12189447;19;20014;-82
2023/07/31 07:54:23;;;;;;;6.07;2.37;;;;;;;21.06;74.71;99452.81;12215558;19;20007;-82
2023/07/31 07:58:25;;;;;;;7.97;3.17;;;;;;;20.96;74.93;99447.53;12213559;19;20074;-82
2023/07/31 08:02:27;;;;;;;7.97;2.75;;;;;;;20.93;75.85;99443.41;12191472;19;20097;-81
2023/07/31 08:06:30;;;;;;;7.73;2.63;;;;;;;21.13;74.76;99444.75;12209608;19;20517;-82
2023/07/31 08:10:32;;;;;;;7.47;2.55;;;;;;;21.36;74.26;99442.63;12213443;19;20014;-82
2023/07/31 08:14:33;;;;;;;7.03;2.20;;;;;;;21.70;73.13;99441.75;12192062;19;20026;-83
2023/07/31 08:18:35;;;;;;;10.50;2.73;;;;;;;21.61;73.10;99438.97;12214807;19;20007;-82
2023/07/31 08:22:37;;;;;;;6.23;2.47;;;;;;;21.45;74.96;99431.44;12212182;19;20472;-82
2023/07/31 08:26:39;;;;;;;9.67;2.97;;;;;;;21.67;74.93;99420.00;12191114;19;20998;-82
2023/07/31 08:30:42;;;;;;;8.50;2.80;;;;;;;21.71;73.30;99423.75;12214811;19;20065;-83
2023/07/31 08:34:44;;;;;;;8.50;2.45;;;;;;;21.78;74.20;99410.06;12216834;19;20006;-82
2023/07/31 08:38:46;;;;;;;9.55;2.67;;;;;;;21.93;71.99;99413.50;12190950;19;20011;-81
2023/07/31 08:42:49;;;;;;;3.93;2.23;;;;;;;22.04;71.73;99395.97;12208756;19;20373;-81
2023/07/31 08:46:52;;;;;;;7.30;2.40;;;;;;;22.22;70.80;99401.50;12214123;19;20003;-81
2023/07/31 08:50:54;;;;;;;7.05;2.15;;;;;;;22.42;70.21;99392.31;12188418;19;20040;-84
2023/07/31 08:54:56;;;;;;;4.80;2.00;;;;;;;22.33;68.90;99387.91;12220967;19;20021;-82
2023/07/31 08:58:59;;;;;;;6.13;2.80;;;;;;;22.47;67.85;99392.13;12213301;19;20586;-83
2023/07/31 09:03:09;;;;;;;7.35;2.20;;;;;;;22.53;67.41;99395.56;12186748;19;20011;-82
2023/07/31 09:07:13;;;;;;;8.65;3.00;;;;;;;22.74;67.65;99396.41;12213792;19;20575;-82
2023/07/31 09:11:16;;;;;;;7.15;2.97;;;;;;;22.83;67.37;99395.53;12196034;19;20019;-81
2023/07/31 09:15:18;;;;;;;7.85;2.58;;;;;;;22.75;67.68;99389.66;12216561;19;20014;-82
2023/07/31 09:19:37;;;;;;;7.95;2.55;;;;;;;22.97;66.01;99382.88;12219077;19;20014;-84
2023/07/31 09:23:41;;;;;;;6.97;2.03;;;;;;;23.46;63.10;99384.25;12192277;19;20070;-84
2023/07/31 09:27:50;;;;;;;6.32;2.45;;;;;;;23.53;62.05;99396.59;12221692;19;20074;-83
2023/07/31 09:31:54;;;;;;;8.52;3.00;;;;;;;23.25;63.07;99392.72;12217858;19;20010;-83
2023/07/31 09:35:58;;;;;;;8.32;3.17;;;;;;;23.20;63.25;99388.13;12199045;19;20022;-83
2023/07/31 09:40:00;;;;;;;4.47;2.25;;;;;;;23.31;61.99;99375.28;12218662;19;20031;-83
2023/07/31 09:44:02;;;;;;;6.87;2.50;;;;;;;23.69;61.84;99365.81;12217577;19;20107;-82
2023/07/31 09:48:09;;;;;;;5.87;2.23;;;;;;;23.79;60.72;99367.38;12197106;19;20036;-83
2023/07/31 09:52:13;;;;;;;5.88;2.55;;;;;;;23.59;60.16;99367.09;12210542;19;20011;-83
2023/07/31 09:56:18;;;;;;;10.30;2.95;;;;;;;23.51;58.97;99359.56;12191364;19;20006;-83
2023/07/31 10:00:22;;;;;;;9.55;2.70;;;;;;;23.48;59.12;99340.56;12213172;19;20006;-81
2023/07/31 10:04:28;;;;;;;5.13;2.58;;;;;;;23.62;59.70;99357.94;12213266;19;20019;-81
2023/07/31 10:08:36;;;;;;;8.50;2.55;;;;;;;23.78;60.04;99346.03;12193541;19;20010;-86
2023/07/31 10:12:38;;;;;;;8.20;2.83;;;;;;;24.29;59.26;99336.09;12213012;19;20011;-83
2023/07/31 10:16:42;;;;;;;9.10;2.45;;;;;;;24.72;57.00;99328.19;12213383;19;20029;-83
2023/07/31 10:20:44;;;;;;;5.20;2.63;;;;;;;25.46;56.85;99317.44;12193346;19;20019;-84
2023/07/31 10:24:46;;;;;;;6.55;2.50;;;;;;;25.90;53.71;99325.88;12211050;19;20003;-84
2023/07/31 10:28:50;;;;;;;9.38;2.40;;;;;;;25.69;52.68;99306.34;12216259;19;20010;-84
2023/07/31 10:32:53;;;;;;;5.80;2.53;;;;;;;26.10;52.73;99309.84;12191007;19;20026;-83
2023/07/31 10:37:23;;;;;;;7.22;2.47;;;;;;;26.84;50.14;99307.09;12212697;19;20006;-83
2023/07/31 10:41:30;;;;;;;4.93;2.42;;;;;;;26.57;49.47;99306.13;12190470;19;20007;-83
2023/07/31 10:45:36;;;;;;;7.65;2.47;;;;;;;26.02;51.87;99316.47;12221378;19;20014;-84
2023/07/31 10:49:38;;;;;;;9.73;2.97;;;;;;;25.46;52.31;99314.59;12224952;19;20003;-83
2023/07/31 10:53:41;;;;;;;12.07;3.30;;;;;;;25.04;54.88;99305.75;12199021;19;20091;-81
2023/07/31 10:57:48;;;;;;;6.22;2.45;;;;;;;25.56;52.44;99321.75;12224368;19;20010;-82
2023/07/31 11:01:57;;;;;;;7.88;3.08;;;;;;;25.57;50.67;99306.44;12225231;19;20035;-84
2023/07/31 11:06:00;;;;;;;7.65;3.35;;;;;;;25.71;49.66;99297.53;12198281;19;20021;-82
2023/07/31 11:10:02;;;;;;;6.35;3.03;;;;;;;25.68;50.14;99304.72;12222463;19;20007;-82
2023/07/31 11:14:04;;;;;;;9.52;2.85;;;;;;;25.25;49.67;99297.91;12221801;19;20066;-83
2023/07/31 11:18:07;;;;;;;10.33;3.33;;;;;;;24.60;51.96;99305.66;12204702;19;20472;-84
2023/07/31 11:22:10;;;;;;;8.70;2.90;;;;;;;24.20;53.54;99307.25;12249363;19;20267;-82
2023/07/31 11:26:12;;;;;;;;;;;;;;;23.69;54.91;99309.56;12250012;19;20018;-82
2023/07/31 11:30:14;;;;;;;7.68;3.35;;;;;;;23.48;56.97;99326.50;12225122;19;19922;-82
2023/07/31 11:34:17;;;;;;;7.43;2.77;;;;;;;23.42;57.73;99311.03;12247085;19;20010;-81
2023/07/31 11:38:30;;;;;;;7.25;3.20;;;;;;;23.46;59.28;99309.16;12203072;19;20043;-82
2023/07/31 11:42:33;;;;;;;9.25;2.97;;;;;;;23.69;58.45;99306.75;12249768;19;20015;-81
2023/07/31 11:46:35;;;;;;;7.88;3.30;;;;;;;23.92;59.09;99297.88;12249607;19;20011;-81
2023/07/31 11:50:37;;;;;;;10.15;3.00;;;;;;;23.98;58.67;99288.84;12223124;19;20015;-82
2023/07/31 11:54:40;;;;;;;6.83;2.63;;;;;;;24.06;58.93;99270.19;12245455;19;20015;-82
2023/07/31 11:58:45;;;;;;;8.23;3.03;;;;;;;23.92;59.77;99278.19;12252551;19;20267;-82
2023/07/31 12:02:47;;;;;;;8.13;2.85;;;;;;;23.86;59.62;99277.59;12222234;19;20040;-81
2023/07/31 12:06:50;;;;;;;;;;;;;;;23.64;61.35;99279.66;12241924;19;20110;-81
2023/07/31 12:10:52;;;;;;;;;;;;;;;23.69;62.19;99270.16;12244053;19;19919;-82
2023/07/31 12:14:55;;;;;;;5.35;2.80;;;;;;;24.11;60.29;99259.50;12205571;19;20266;-82
2023/07/31 12:18:56;;;;;;;6.60;2.90;;;;;;;24.37;59.58;99260.31;12224102;19;20052;-82
2023/07/31 12:22:58;;;;;;;7.47;3.03;;;;;;;24.44;58.85;99244.47;12231862;19;20031;-82
2023/07/31 12:27:00;;;;;;;8.43;2.70;;;;;;;24.11;59.38;99239.00;12204202;19;20259;-81
2023/07/31 12:31:02;;;;;;;4.80;2.55;;;;;;;23.64;61.77;99237.47;12222929;19;20010;-81
2023/07/31 12:35:06;;;;;;;9.88;3.17;;;;;;;23.19;62.67;99235.53;12227323;19;20484;-82
2023/07/31 12:39:08;;;;;;;10.82;3.22;;;;;;;22.91;64.29;99234.50;12203238;19;20027;-81
2023/07/31 12:43:10;;;;;;;8.32;3.00;;;;;;;22.73;65.28;99233.88;12218142;19;20007;-82
2023/07/31 12:47:11;;;;;;;7.43;2.87;;;;;;;22.69;65.56;99233.72;12222200;19;20027;-81
2023/07/31 12:51:13;;;;;;;9.30;3.10;;;;;;;22.59;67.19;99220.09;12199066;19;20035;-81
2023/07/31 12:55:16;;;;;;;4.88;2.45;;;;;;;22.59;66.53;99216.47;12218146;19;20050;-81
2023/07/31 12:59:17;;;;;;;11.65;2.97;;;;;;;22.59;65.92;99208.88;12199925;19;20009;-81
2023/07/31 13:03:19;;;;;;;8.47;2.63;;;;;;;22.68;65.24;99201.19;12219341;19;20010;-81
2023/07/31 13:07:22;;;;;;;5.90;2.73;;;;;;;22.92;64.33;99196.81;12226877;19;20017;-81
2023/07/31 13:11:24;;;;;;;10.30;2.67;;;;;;;23.29;63.52;99205.34;12226081;19;20011;-82
2023/07/31 13:15:26;;;;;;;10.30;3.47;;;;;;;23.97;61.71;99188.69;12245169;19;20006;-82
2023/07/31 13:19:27;;;;;;;11.55;3.00;;;;;;;24.96;57.78;99184.38;12246560;19;20037;-81
2023/07/31 13:23:29;;;;;;;8.37;2.73;;;;;;;25.42;54.67;99181.16;12220051;19;20007;-82
2023/07/31 13:27:31;;;;;;;6.85;2.88;;;;;;;25.87;53.50;99177.00;12241267;19;20090;-82
2023/07/31 13:31:33;;;;;;;7.63;2.40;;;;;;;25.99;52.07;99179.69;12242184;19;20006;-82
2023/07/31 13:35:35;;;;;;;5.18;2.53;;;;;;;25.45;53.00;99183.22;12223653;19;20019;-83
2023/07/31 13:39:37;;;;;;;6.57;2.43;;;;;;;24.79;54.94;99188.34;12225119;19;19998;-83
2023/07/31 13:43:39;;;;;;;5.05;2.47;;;;;;;24.36;56.39;99177.81;12221480;19;20271;-82
2023/07/31 13:47:40;;;;;;;4.37;2.33;;;;;;;24.07;58.42;99176.97;12200004;19;20078;-82
2023/07/31 13:51:42;;;;;;;6.80;2.60;;;;;;;23.79;59.28;99185.31;12221529;19;20014;-82
2023/07/31 13:55:45;;;;;;;6.97;2.25;;;;;;;23.43;60.56;99172.09;12214187;19;20022;-82
2023/07/31 13:59:47;;;;;;;7.78;2.50;;;;;;;23.20;62.88;99174.53;12195652;19;20018;-83
2023/07/31 14:03:49;;;;;;;7.73;2.63;;;;;;;23.01;63.16;99179.91;12214731;19;20002;-82
2023/07/31 14:07:51;;;;;;;6.63;2.43;;;;;;;22.91;63.45;99189.56;12213364;19;20010;-82
2023/07/31 14:11:53;;;;;;;6.90;3.33;;;;;;;22.90;63.47;99176.66;12194191;19;20007;-81
2023/07/31 14:15:54;;;;;;;6.17;2.47;;;;;;;22.91;63.88;99167.91;12222443;19;20017;-81
2023/07/31 14:19:56;;;;;;;5.47;2.80;;;;;;;22.86;63.80;99158.88;12217926;19;20101;-81
2023/07/31 14:23:59;;;;;;;7.25;2.70;;;;;;;22.79;64.16;99158.63;12193695;19;19999;-82
2023/07/31 14:28:01;;;;;;;6.83;2.43;;;;;;;22.71;64.83;99149.13;12210861;19;20016;-83
2023/07/31 14:32:02;;;;;;;5.55;2.85;;;;;;;22.67;65.87;99148.19;12207561;19;20338;-82
2023/07/31 14:36:04;;;;;;;8.70;2.93;;;;;;;22.66;66.51;99143.72;12192532;19;20379;-82
2023/07/31 14:40:15;;;;;;;7.00;2.53;;;;;;;22.64;67.03;99144.09;12207217;19;20411;-82
2023/07/31 14:44:17;;;;;;;10.30;2.73;;;;;;;22.60;66.70;99134.69;12188360;19;20011;-83
2023/07/31 14:48:19;;;;;;;8.50;2.40;;;;;;;22.57;66.40;99135.38;12206411;19;20518;-84
2023/07/31 14:52:20;;;;;;;5.47;2.40;;;;;;;22.51;66.12;99128.34;12211466;19;20460;-83
2023/07/31 14:56:22;;;;;;;5.13;2.47;;;;;;;22.66;65.59;99116.44;12190121;19;20032;-84
2023/07/31 15:00:24;;;;;;;8.30;2.37;;;;;;;22.82;65.22;99127.84;12208361;19;20026;-83
2023/07/31 15:04:26;;;;;;;7.38;2.60;;;;;;;22.74;65.51;99128.78;12211395;19;20007;-84
2023/07/31 15:08:28;;;;;;;6.10;2.40;;;;;;;22.62;65.67;99125.94;12189085;19;20035;-84
2023/07/31 15:12:29;;;;;;;6.33;2.37;;;;;;;22.51;66.41;99123.56;12213186;19;20054;-83
2023/07/31 15:16:32;;;;;;;9.10;2.33;;;;;;;22.44;66.51;99136.53;12211815;19;20490;-83
2023/07/31 15:20:34;;;;;;;6.00;2.90;;;;;;;22.35;67.14;99135.78;12188806;19;20024;-83
2023/07/31 15:24:35;;;;;;;8.20;2.73;;;;;;;22.28;67.84;99116.72;12208278;19;20018;-83
2023/07/31 15:28:38;;;;;;;4.33;2.40;;;;;;;22.35;67.91;99118.94;12209323;19;20568;-83
2023/07/31 15:32:40;;;;;;;8.40;3.47;;;;;;;22.52;67.16;99127.22;12199168;19;20011;-84
2023/07/31 15:36:42;;;;;;;6.63;2.57;;;;;;;22.66;66.64;99119.25;12224791;19;20359;-83
2023/07/31 15:40:45;;;;;;;8.93;2.38;;;;;;;22.74;65.65;99120.34;12223483;19;20002;-84
2023/07/31 15:44:47;;;;;;;6.53;2.33;;;;;;;22.63;66.47;99117.16;12199477;19;20364;-83
2023/07/31 15:48:49;;;;;;;7.47;2.20;;;;;;;22.56;65.97;99127.31;12222633;19;20013;-83
2023/07/31 15:52:50;;;;;;;4.40;1.80;;;;;;;22.48;64.92;99129.03;12220380;19;20468;-83
2023/07/31 15:56:52;;;;;;;4.83;1.83;;;;;;;22.47;63.85;99133.03;12198864;19;20024;-84
2023/07/31 16:00:55;;;;;;;6.30;2.20;;;;;;;22.50;63.25;99118.31;12217927;19;20035;-83
2023/07/31 16:04:57;;;;;;;6.70;2.35;;;;;;;22.65;63.48;99128.88;12218273;19;20031;-82
2023/07/31 16:08:59;;;;;;;7.35;2.20;;;;;;;22.69;63.70;99127.00;12197768;19;20015;-83
2023/07/31 16:13:01;;;;;;;4.23;2.00;;;;;;;22.79;64.05;99125.75;12220554;19;20006;-84
2023/07/31 16:17:03;;;;;;;6.10;2.00;;;;;;;22.82;63.65;99113.00;12219761;19;20035;-83
2023/07/31 16:21:08;;;;;;;5.65;2.55;;;;;;;22.75;65.98;99117.22;12197629;19;20010;-84
2023/07/31 16:25:10;;;;;;;4.73;2.60;;;;;;;22.56;67.80;99105.69;12215760;19;20035;-84
2023/07/31 16:29:12;;;;;;;6.55;2.30;;;;;;;22.38;71.31;99109.84;12219443;19;20018;-83
2023/07/31 16:33:15;;;;;;;7.10;2.47;;;;;;;22.03;76.92;99110.13;12193894;19;20011;-83
2023/07/31 16:37:17;;;;;;;7.82;2.90;;;;;;;21.62;82.28;99106.16;12216864;19;20013;-84
2023/07/31 16:46:09;;;;;;;5.03;2.35;;;;;;;20.80;92.85;99102.78;12210380;19;20022;-84
2023/07/31 16:50:11;;;;;;;6.57;3.15;;;;;;;20.42;97.14;99097.91;12215708;19;20505;-84
2023/07/31 16:54:13;;;;;;;7.93;2.97;;;;;;;20.09;100.00;99081.69;12193160;19;20011;-84
2023/07/31 16:58:15;;;;;;;12.88;3.47;;;;;;;19.81;100.00;99072.84;12212607;19;20010;-84
2023/07/31 17:02:17;;;;;;;7.43;3.65;;;;;;;19.65;100.00;99074.47;12194587;19;20006;-84
2023/07/31 17:06:20;;;;;;;7.05;3.15;;;;;;;19.56;100.00;99055.69;12216535;19;20011;-85
2023/07/31 17:10:23;;;;;;;8.90;3.05;;;;;;;19.47;100.00;99065.22;12218786;19;20035;-85
2023/07/31 17:14:25;;;;;;;8.68;3.22;;;;;;;19.35;100.00;99055.50;12197500;19;20014;-85
2023/07/31 17:18:28;;;;;;;8.20;3.50;;;;;;;19.21;100.00;99059.56;12220535;19;20011;-84
2023/07/31 17:22:30;;;;;;;9.63;3.70;;;;;;;19.08;100.00;99059.38;12227731;19;20030;-86
2023/07/31 17:26:49;;;;;;;9.43;3.67;;;;;;;18.93;100.00;99065.44;12202928;19;19998;-85
2023/07/31 17:30:51;;;;;;;8.40;3.60;;;;;;;18.80;100.00;99050.44;12227117;19;20002;-84
2023/07/31 17:34:52;;;;;;;9.77;3.90;;;;;;;18.73;100.00;99052.03;12220729;19;20363;-84
2023/07/31 17:38:54;;;;;;;8.65;3.90;;;;;;;18.66;100.00;99052.50;12200933;19;20006;-84
2023/07/31 17:42:56;;;;;;;9.95;3.72;;;;;;;18.58;100.00;99051.31;12224796;19;20014;-85
2023/07/31 17:46:58;;;;;;;9.57;4.47;;;;;;;18.54;100.00;99046.69;12220193;19;20010;-84
2023/07/31 17:51:00;;;;;;;13.32;3.40;;;;;;;18.49;100.00;99039.28;12195766;19;20374;-83
2023/07/31 17:55:02;;;;;;;10.32;4.55;;;;;;;18.45;100.00;99043.88;12217890;19;20006;-84
2023/07/31 17:59:05;;;;;;;8.53;3.57;;;;;;;18.45;100.00;99038.28;12218313;19;20030;-85
2023/07/31 18:03:08;;;;;;;10.40;4.13;;;;;;;18.44;100.00;99017.09;12199702;19;20021;-85
2023/07/31 18:07:10;;;;;;;14.20;4.68;;;;;;;18.42;100.00;98994.31;12212472;19;20018;-86
2023/07/31 18:11:14;;;;;;;11.48;4.35;;;;;;;18.41;100.00;98987.06;12232692;19;20022;-86
2023/07/31 18:15:16;;;;;;;9.70;4.43;;;;;;;18.39;100.00;98984.59;12188989;19;20014;-85
2023/07/31 18:19:18;;;;;;;9.43;4.57;;;;;;;18.37;100.00;98986.88;12207859;19;20006;-85
2023/07/31 18:23:20;;;;;;;10.67;3.97;;;;;;;18.38;100.00;98987.69;12184846;19;20082;-86
2023/07/31 18:27:23;;;;;;;9.02;4.40;;;;;;;18.37;100.00;98991.66;12208623;19;20251;-85
2023/07/31 18:31:25;;;;;;;11.98;5.05;;;;;;;18.36;100.00;98992.81;12209857;19;20401;-84
2023/07/31 18:35:27;;;;;;;8.90;4.27;;;;;;;18.39;100.00;98989.38;12185807;19;20089;-84
2023/07/31 18:39:31;;;;;;;8.73;4.28;;;;;;;18.40;100.00;99000.19;12207993;19;20022;-84
2023/07/31 18:43:33;;;;;;;10.30;4.07;;;;;;;18.41;100.00;99003.78;12207699;19;20022;-84
2023/07/31 18:47:34;;;;;;;6.97;3.90;;;;;;;18.37;100.00;98998.03;12186692;19;20004;-82
2023/07/31 18:51:38;;;;;;;11.73;4.63;;;;;;;18.40;100.00;99002.16;12206899;19;20074;-83